createdAt,value
2019-05-10T00:00:45.660Z,95.00
2019-05-10T00:03:32.355Z,95.65
2019-05-10T00:06:28.669Z,95.54
2019-05-10T00:08:56.999Z,95.59
2019-05-10T00:11:48.790Z,95.52
2019-05-10T00:14:30.606Z,95.49
2019-05-10T00:17:08.722Z,95.35
2019-05-10T00:19:37.594Z,96.01
2019-05-10T00:22:06.613Z,95.69
2019-05-10T00:24:35.529Z,95.49
2019-05-10T00:27:04.570Z,95.73
2019-05-10T00:29:33.495Z,95.39
2019-05-10T00:32:02.429Z,95.60
2019-05-10T00:34:31.411Z,96.09
2019-05-10T00:37:00.365Z,96.26
2019-05-10T00:39:31.349Z,96.71
2019-05-10T00:42:05.902Z,95.87
2019-05-10T00:44:34.826Z,96.17
2019-05-10T00:47:03.821Z,96.77
2019-05-10T00:49:32.689Z,96.45
2019-05-10T00:52:01.680Z,96.51
2019-05-10T00:54:30.609Z,96.84
2019-05-10T00:56:59.574Z,96.64
2019-05-10T00:59:28.527Z,96.45
2019-05-10T01:01:57.496Z,96.41
2019-05-10T01:04:26.426Z,95.94
2019-05-10T01:06:56.511Z,96.23
2019-05-10T01:09:25.573Z,96.00
2019-05-10T01:11:56.316Z,95.74
2019-05-10T01:14:33.551Z,95.51
2019-05-10T01:17:02.607Z,95.82
2019-05-10T01:19:31.466Z,95.81
2019-05-10T01:22:00.399Z,95.68
2019-05-10T01:24:29.595Z,96.12
2019-05-10T01:26:58.495Z,95.74
2019-05-10T01:29:27.304Z,96.00
2019-05-10T01:31:56.264Z,96.11
2019-05-10T01:34:25.155Z,95.88
2019-05-10T01:36:54.085Z,94.58
2019-05-10T01:39:41.496Z,95.96
2019-05-10T01:42:11.096Z,96.81
2019-05-10T01:44:40.421Z,96.67
2019-05-10T01:47:09.460Z,96.38
2019-05-10T01:49:38.580Z,96.57
2019-05-10T01:52:07.537Z,96.85
2019-05-10T01:54:36.400Z,97.19
2019-05-10T01:57:05.385Z,97.35
2019-05-10T01:59:34.237Z,96.62
2019-05-10T02:02:03.150Z,96.42
2019-05-10T02:04:32.024Z,95.73
2019-05-10T02:07:00.862Z,96.04
2019-05-10T02:09:37.301Z,95.47
2019-05-10T02:12:06.649Z,95.31
2019-05-10T02:14:35.910Z,95.72
2019-05-10T02:17:05.120Z,95.49
2019-05-10T02:19:34.223Z,95.26
2019-05-10T02:22:03.291Z,94.61
2019-05-10T02:24:32.167Z,95.32
2019-05-10T02:27:01.113Z,95.78
2019-05-10T02:29:30.049Z,94.93
2019-05-10T02:31:59.043Z,94.87
2019-05-10T02:34:27.968Z,94.66
2019-05-10T02:36:56.833Z,94.71
2019-05-10T02:39:36.320Z,95.11
2019-05-10T02:42:01.179Z,95.87
2019-05-10T02:44:30.178Z,95.63
2019-05-10T02:46:59.216Z,95.73
2019-05-10T02:49:28.224Z,95.93
2019-05-10T02:51:57.036Z,95.83
2019-05-10T02:54:26.027Z,95.98
2019-05-10T02:56:55.707Z,96.43
2019-05-10T02:59:25.567Z,96.53
2019-05-10T03:01:56.908Z,96.41
2019-05-10T03:04:27.583Z,96.02
2019-05-10T03:07:09.177Z,96.05
2019-05-10T03:09:40.824Z,96.68
2019-05-10T03:12:25.838Z,96.56
2019-05-10T03:14:58.743Z,96.98
2019-05-10T03:17:28.705Z,97.21
2019-05-10T03:19:59.160Z,97.41
2019-05-10T03:22:28.101Z,97.46
2019-05-10T03:24:57.120Z,97.07
2019-05-10T03:27:26.377Z,96.57
2019-05-10T03:30:05.631Z,96.67
2019-05-10T03:32:34.646Z,96.73
2019-05-10T03:35:03.652Z,96.79
2019-05-10T03:37:32.622Z,96.74
2019-05-10T03:40:02.368Z,96.84
2019-05-10T03:42:31.677Z,96.89
2019-05-10T03:45:00.540Z,96.45
2019-05-10T03:47:29.473Z,96.64
2019-05-10T03:49:58.293Z,96.47
2019-05-10T03:52:27.362Z,96.88
2019-05-10T03:54:56.224Z,97.34
2019-05-10T03:57:25.165Z,97.37
2019-05-10T03:59:54.035Z,97.26
2019-05-10T04:02:22.898Z,97.28
2019-05-10T04:04:51.748Z,97.23
2019-05-10T04:07:20.612Z,97.17
2019-05-10T04:09:49.700Z,97.40
2019-05-10T04:12:18.633Z,97.41
2019-05-10T04:14:49.607Z,97.38
2019-05-10T04:17:18.404Z,97.52
2019-05-10T04:19:47.425Z,97.87
2019-05-10T04:22:16.451Z,97.92
2019-05-10T04:24:45.380Z,97.99
2019-05-10T04:27:30.518Z,98.32
2019-05-10T04:29:46.053Z,98.31
2019-05-10T04:32:14.982Z,98.45
2019-05-10T04:34:46.016Z,98.67
2019-05-10T04:37:14.896Z,98.64
2019-05-10T04:39:43.832Z,98.64
2019-05-10T04:42:12.726Z,98.51
2019-05-10T04:44:41.532Z,98.36
2019-05-10T04:47:10.421Z,98.39
2019-05-10T04:49:39.391Z,98.48
2019-05-10T04:52:08.281Z,98.43
2019-05-10T04:54:37.239Z,99.05
2019-05-10T04:57:06.215Z,99.19
2019-05-10T04:59:47.505Z,99.04
2019-05-10T05:02:22.109Z,99.64
2019-05-10T05:04:52.995Z,99.98
2019-05-10T05:07:36.203Z,100.00
2019-05-10T05:10:20.824Z,100.00
2019-05-10T05:12:53.038Z,100.00
2019-05-10T05:15:22.486Z,100.00
2019-05-10T05:17:55.578Z,100.00
2019-05-10T05:20:27.838Z,100.00
2019-05-10T05:23:11.302Z,100.00
2019-05-10T05:25:40.270Z,100.00
2019-05-10T05:28:10.631Z,100.00
2019-05-10T05:30:39.528Z,100.00
2019-05-10T05:33:08.355Z,100.00
2019-05-10T05:35:37.306Z,100.00
2019-05-10T05:38:06.144Z,100.00
2019-05-10T05:40:36.054Z,100.00
2019-05-10T05:43:08.081Z,100.00
2019-05-10T05:45:35.775Z,100.00
2019-05-10T05:48:39.461Z,100.00
2019-05-10T05:50:55.901Z,100.00
2019-05-10T05:53:24.713Z,100.00
2019-05-10T05:55:53.534Z,100.00
2019-05-10T05:58:27.056Z,100.00
2019-05-10T06:00:53.046Z,100.00
2019-05-10T06:03:27.452Z,100.00
2019-05-10T06:05:52.668Z,99.92
2019-05-10T06:08:25.155Z,98.41
2019-05-10T06:10:57.954Z,97.89
2019-05-10T06:13:30.143Z,96.56
2019-05-10T06:15:55.201Z,96.47
2019-05-10T06:18:24.035Z,96.64
2019-05-10T06:20:55.086Z,97.35
2019-05-10T06:23:29.280Z,97.29
2019-05-10T06:25:54.611Z,97.97
2019-05-10T06:28:28.715Z,98.31
2019-05-10T06:30:54.396Z,98.24
2019-05-10T06:33:23.204Z,98.15
2019-05-10T06:35:52.002Z,98.61
2019-05-10T06:38:20.918Z,98.28
2019-05-10T06:40:49.734Z,97.99
2019-05-10T06:43:18.593Z,98.29
2019-05-10T06:45:52.403Z,98.54
2019-05-10T06:48:26.796Z,98.58
2019-05-10T06:50:56.614Z,99.04
2019-05-10T06:53:25.653Z,98.40
2019-05-10T06:55:54.905Z,98.62
2019-05-10T06:58:24.634Z,98.33
2019-05-10T07:00:55.319Z,98.40
2019-05-10T07:03:24.468Z,98.21
2019-05-10T07:05:53.745Z,98.05
2019-05-10T07:08:22.633Z,98.12
2019-05-10T07:10:51.888Z,97.49
2019-05-10T07:13:21.066Z,97.37
2019-05-10T07:15:50.069Z,97.01
2019-05-10T07:18:22.814Z,96.97
2019-05-10T07:21:00.953Z,96.80
2019-05-10T07:23:30.235Z,96.64
2019-05-10T07:25:59.430Z,96.35
2019-05-10T07:28:28.429Z,96.07
2019-05-10T07:30:57.463Z,95.99
2019-05-10T07:33:26.688Z,95.74
2019-05-10T07:35:55.819Z,96.25
2019-05-10T07:38:30.711Z,95.37
2019-05-10T07:40:55.921Z,94.43
2019-05-10T07:43:35.007Z,94.87
2019-05-10T07:46:06.636Z,94.96
2019-05-10T07:48:35.394Z,95.41
2019-05-10T07:51:04.638Z,95.72
2019-05-10T07:53:38.309Z,96.08
2019-05-10T07:56:08.995Z,96.75
2019-05-10T07:58:42.818Z,96.41
2019-05-10T08:01:12.329Z,96.85
2019-05-10T08:03:48.078Z,97.01
2019-05-10T08:08:39.891Z,98.42
2019-05-10T08:11:08.867Z,98.24
2019-05-10T08:13:39.313Z,97.73
2019-05-10T08:16:11.929Z,97.83
2019-05-10T08:18:39.834Z,97.53
2019-05-10T08:21:20.457Z,98.03
2019-05-10T08:23:41.498Z,98.03
2019-05-10T08:26:20.328Z,97.49
2019-05-10T08:28:44.610Z,97.70
2019-05-10T08:31:12.581Z,96.78
2019-05-10T08:33:44.217Z,95.86
2019-05-10T08:36:12.229Z,96.12
2019-05-10T08:38:47.212Z,95.66
2019-05-10T08:41:16.500Z,95.06
2019-05-10T08:43:42.998Z,94.12
2019-05-10T08:46:12.251Z,94.59
2019-05-10T08:48:46.575Z,94.78
2019-05-10T08:51:12.621Z,94.49
2019-05-10T08:53:42.305Z,93.97
2019-05-10T08:56:13.676Z,94.17
2019-05-10T08:58:42.254Z,94.60
2019-05-10T09:01:23.894Z,95.01
2019-05-10T09:03:42.150Z,94.74
2019-05-10T09:06:16.491Z,95.12
2019-05-10T09:08:43.138Z,95.35
2019-05-10T09:11:12.107Z,95.14
2019-05-10T09:13:45.670Z,94.48
2019-05-10T09:16:13.672Z,94.56
2019-05-10T09:18:46.626Z,94.62
2019-05-10T09:21:14.325Z,95.01
2019-05-10T09:23:43.007Z,95.75
2019-05-10T09:26:16.565Z,96.19
2019-05-10T09:28:42.514Z,96.97
2019-05-10T09:31:18.910Z,96.81
2019-05-10T09:33:49.322Z,97.28
2019-05-10T09:36:12.633Z,96.63
2019-05-10T09:38:43.439Z,96.49
2019-05-10T09:41:12.037Z,96.45
2019-05-10T09:43:48.451Z,96.45
2019-05-10T09:46:14.039Z,96.44
2019-05-10T09:48:44.761Z,96.57
2019-05-10T09:51:13.883Z,96.82
2019-05-10T09:53:42.993Z,97.37
2019-05-10T09:56:11.941Z,97.92
2019-05-10T09:58:40.767Z,98.51
2019-05-10T10:01:17.781Z,98.82
2019-05-10T10:03:43.627Z,97.96
2019-05-10T10:06:11.445Z,97.65
2019-05-10T10:08:43.523Z,97.95
2019-05-10T10:11:15.742Z,97.27
2019-05-10T10:13:43.988Z,96.89
2019-05-10T10:16:14.699Z,96.38
2019-05-10T10:18:42.761Z,95.86
2019-05-10T10:21:13.189Z,96.19
2019-05-10T10:23:42.234Z,95.90
2019-05-10T10:26:12.543Z,95.89
2019-05-10T10:28:41.689Z,96.14
2019-05-10T10:31:25.086Z,96.31
2019-05-10T10:33:43.071Z,96.58
2019-05-10T10:36:11.755Z,95.83
2019-05-10T10:38:45.471Z,95.28
2019-05-10T10:41:11.625Z,95.85
2019-05-10T10:43:40.427Z,95.26
2019-05-10T10:46:12.467Z,95.06
2019-05-10T10:48:43.528Z,95.10
2019-05-10T10:51:10.603Z,95.76
2019-05-10T10:53:39.468Z,95.58
2019-05-10T10:56:08.216Z,95.60
2019-05-10T10:58:37.112Z,95.95
2019-05-10T11:01:10.643Z,93.88
2019-05-10T11:03:40.968Z,92.47
2019-05-10T11:06:09.835Z,91.95
2019-05-10T11:12:06.188Z,92.61
2019-05-10T11:14:39.991Z,93.48
2019-05-10T11:17:05.645Z,93.97
2019-05-10T11:19:34.455Z,93.24
2019-05-10T11:22:09.679Z,90.99
2019-05-10T11:24:33.860Z,91.37
2019-05-10T11:27:17.111Z,92.11
2019-05-10T11:29:43.995Z,90.63
2019-05-10T11:32:16.698Z,90.83
2019-05-10T11:34:44.145Z,91.24
2019-05-10T11:37:16.183Z,91.92
2019-05-10T11:39:46.815Z,91.95
2019-05-10T11:42:15.583Z,93.12
2019-05-10T11:44:49.959Z,92.44
2019-05-10T11:47:25.286Z,92.88
2019-05-10T11:49:45.613Z,91.39
2019-05-10T11:52:14.430Z,89.53
2019-05-10T11:54:43.480Z,89.62
2019-05-10T11:57:13.739Z,88.70
2019-05-10T11:59:42.821Z,90.20
2019-05-10T12:02:32.700Z,89.91
2019-05-10T12:04:43.486Z,91.27
2019-05-10T12:07:13.011Z,90.48
2019-05-10T12:09:42.721Z,89.40
2019-05-10T12:12:12.487Z,90.34
2019-05-10T12:14:43.754Z,89.93
2019-05-10T12:17:24.961Z,89.75
2019-05-10T12:19:56.223Z,89.27
2019-05-10T12:22:32.058Z,89.04
2019-05-10T12:25:20.573Z,89.52
2019-05-10T12:27:30.092Z,89.49
2019-05-10T12:29:59.985Z,89.27
2019-05-10T12:32:27.113Z,88.24
2019-05-10T12:34:57.310Z,88.51
2019-05-10T12:37:26.323Z,87.80
2019-05-10T12:39:55.344Z,87.09
2019-05-10T12:42:24.153Z,87.05
2019-05-10T12:44:55.847Z,87.51
2019-05-10T12:47:24.658Z,86.12
2019-05-10T12:50:01.778Z,85.93
2019-05-10T12:52:28.653Z,84.94
2019-05-10T12:54:55.570Z,84.18
2019-05-10T12:57:27.796Z,84.24
2019-05-10T13:00:12.275Z,82.59
2019-05-10T13:02:51.457Z,82.42
2019-05-10T13:05:30.695Z,82.35
2019-05-10T13:07:58.068Z,82.73
2019-05-10T13:10:53.076Z,82.66
2019-05-10T13:13:31.757Z,82.46
2019-05-10T13:16:09.538Z,82.85
2019-05-10T13:18:52.928Z,83.85
2019-05-10T13:21:19.507Z,83.78
2019-05-10T13:23:53.309Z,82.57
2019-05-10T13:26:25.564Z,80.21
2019-05-10T13:29:08.171Z,80.36
2019-05-10T13:31:42.138Z,80.30
2019-05-10T13:34:34.597Z,78.00
2019-05-10T13:37:06.690Z,77.03
2019-05-10T13:39:39.423Z,76.49
2019-05-10T13:42:12.346Z,77.22
2019-05-10T13:44:43.062Z,77.33
2019-05-10T13:47:13.204Z,78.75
2019-05-10T13:49:42.200Z,78.46
2019-05-10T13:52:18.194Z,77.87
2019-05-10T13:54:47.325Z,76.69
2019-05-10T13:57:16.696Z,75.88
2019-05-10T13:59:48.893Z,76.31
2019-05-10T14:05:30.304Z,73.79
2019-05-10T14:07:59.145Z,72.77
2019-05-10T14:10:28.141Z,69.68
2019-05-10T14:13:02.713Z,70.12
2019-05-10T14:15:27.788Z,68.06
2019-05-10T14:17:56.827Z,67.98
2019-05-10T14:20:27.666Z,69.30
2019-05-10T14:22:58.713Z,70.41
2019-05-10T14:25:29.647Z,67.92
2019-05-10T14:27:57.905Z,69.14
2019-05-10T14:30:27.113Z,66.89
2019-05-10T14:32:56.135Z,65.23
2019-05-10T14:35:28.027Z,65.73
2019-05-10T14:38:07.591Z,64.66
2019-05-10T14:40:30.464Z,65.85
2019-05-10T14:42:58.272Z,65.36
2019-05-10T14:45:27.116Z,65.81
2019-05-10T14:47:56.081Z,63.95
2019-05-10T14:50:28.048Z,63.87
2019-05-10T14:52:55.734Z,63.85
2019-05-10T14:55:27.874Z,63.27
2019-05-10T14:57:55.276Z,63.07
2019-05-10T15:00:24.287Z,64.58
2019-05-10T15:02:56.648Z,65.55
2019-05-10T15:05:23.777Z,64.83
2019-05-10T15:11:33.268Z,63.44
2019-05-10T15:14:02.376Z,61.26
2019-05-10T15:16:31.532Z,60.36
2019-05-10T15:19:00.420Z,61.09
2019-05-10T15:21:34.541Z,61.09
2019-05-10T15:24:03.096Z,59.75
2019-05-10T15:26:37.660Z,52.06
2019-05-10T15:29:02.807Z,52.06
2019-05-10T15:31:31.871Z,55.68
2019-05-10T15:34:04.985Z,52.77
2019-05-10T15:43:04.550Z,49.02
2019-05-10T15:49:06.058Z,43.17
2019-05-10T15:51:36.541Z,40.42
2019-05-10T15:54:07.497Z,42.09
2019-05-10T15:59:07.423Z,56.61
2019-05-10T15:59:23.581Z,48.37
2019-05-10T16:01:36.532Z,55.12
2019-05-10T16:04:05.605Z,58.93
2019-05-10T16:06:37.739Z,55.79
2019-05-10T16:09:16.936Z,44.07
2019-05-10T16:25:48.623Z,57.21
2019-05-10T16:28:20.702Z,57.61
2019-05-10T16:30:54.112Z,58.86
2019-05-10T16:33:25.861Z,59.79
2019-05-10T16:35:55.531Z,59.36
2019-05-10T16:38:25.498Z,57.67
2019-05-10T16:41:00.605Z,57.81
2019-05-10T16:44:01.200Z,58.58
2019-05-10T16:46:38.159Z,58.73
2019-05-10T16:49:10.161Z,59.92
2019-05-10T16:51:42.370Z,59.90
2019-05-10T16:54:33.759Z,60.45
2019-05-10T17:04:00.387Z,58.98
2019-05-10T17:06:28.857Z,58.98
2019-05-10T17:08:58.029Z,57.94
2019-05-10T17:11:26.822Z,57.41
2019-05-10T17:13:55.900Z,59.64
2019-05-10T17:16:24.976Z,58.54
2019-05-10T17:18:55.319Z,58.59
2019-05-10T17:21:24.859Z,59.56
2019-05-10T17:23:53.900Z,61.29
2019-05-10T17:26:34.811Z,59.94
2019-05-10T17:29:07.334Z,59.48
2019-05-10T17:31:39.518Z,59.22
2019-05-10T17:34:05.314Z,60.75
2019-05-10T17:36:34.441Z,59.96
2019-05-10T17:39:04.341Z,61.36
2019-05-10T17:41:41.043Z,60.07
2019-05-10T17:44:11.177Z,59.81
2019-05-10T17:46:40.267Z,60.39
2019-05-10T17:49:09.341Z,61.62
2019-05-10T17:51:38.604Z,61.97
2019-05-10T17:54:07.695Z,60.84
2019-05-10T17:56:38.992Z,62.14
2019-05-10T17:59:12.130Z,62.23
2019-05-10T18:01:40.362Z,61.73
2019-05-10T18:04:09.697Z,61.43
2019-05-10T18:06:38.747Z,62.45
2019-05-10T18:09:07.848Z,62.50
2019-05-10T18:11:42.857Z,61.75
2019-05-10T18:14:12.591Z,61.71
2019-05-10T18:16:41.930Z,62.06
2019-05-10T18:19:10.207Z,63.84
2019-05-10T18:21:39.086Z,63.68
2019-05-10T18:24:07.895Z,63.89
2019-05-10T18:26:39.674Z,64.36
2019-05-10T18:29:07.406Z,65.76
2019-05-10T18:31:36.248Z,66.80
2019-05-10T18:34:05.135Z,66.72
2019-05-10T18:36:51.276Z,67.91
2019-05-10T18:39:09.160Z,67.54
2019-05-10T18:41:41.463Z,68.04
2019-05-10T18:44:08.787Z,67.94
2019-05-10T18:46:39.380Z,69.50
2019-05-10T18:49:08.420Z,71.74
2019-05-10T18:51:37.281Z,72.77
2019-05-10T18:54:06.174Z,72.35
2019-05-10T18:56:35.150Z,73.32
2019-05-10T18:59:07.503Z,74.68
2019-05-10T19:01:38.652Z,75.71
2019-05-10T19:04:14.217Z,75.41
2019-05-10T19:06:44.012Z,74.82
2019-05-10T19:09:09.700Z,75.72
2019-05-10T19:11:40.533Z,76.15
2019-05-10T19:14:09.239Z,77.14
2019-05-10T19:16:38.003Z,75.80
2019-05-10T19:19:07.979Z,76.83
2019-05-10T19:21:37.973Z,78.12
2019-05-10T19:24:07.330Z,77.69
2019-05-10T19:26:36.360Z,79.21
2019-05-10T19:29:06.819Z,78.84
2019-05-10T19:31:37.890Z,78.87
2019-05-10T19:34:09.085Z,80.08
2019-05-10T19:36:37.507Z,80.60
2019-05-10T19:39:07.794Z,81.19
2019-05-10T19:41:37.228Z,80.82
2019-05-10T19:44:06.134Z,81.04
2019-05-10T19:46:39.031Z,81.52
2019-05-10T19:49:07.512Z,81.64
2019-05-10T19:51:36.405Z,81.52
2019-05-10T19:54:05.462Z,81.83
2019-05-10T19:56:36.543Z,81.78
2019-05-10T19:59:10.916Z,80.72
2019-05-10T20:01:35.539Z,81.66
2019-05-10T20:04:04.534Z,82.94
2019-05-10T20:06:33.326Z,82.35
2019-05-10T20:09:02.147Z,82.03
2019-05-10T20:11:31.138Z,81.93
2019-05-10T20:14:00.228Z,81.21
2019-05-10T20:16:29.129Z,82.68
2019-05-10T20:18:57.948Z,81.89
2019-05-10T20:21:40.751Z,82.79
2019-05-10T20:24:11.031Z,81.71
2019-05-10T20:26:40.393Z,83.34
2019-05-10T20:29:11.655Z,84.74
2019-05-10T20:35:08.298Z,85.33
2019-05-10T20:37:37.335Z,84.65
2019-05-10T20:40:06.542Z,84.58
2019-05-10T20:42:35.367Z,84.69
2019-05-10T20:45:08.152Z,84.58
2019-05-10T20:47:35.184Z,85.02
2019-05-10T20:50:04.790Z,84.87
2019-05-10T20:52:33.819Z,85.26
2019-05-10T20:55:39.781Z,85.94
2019-05-10T20:58:08.640Z,86.47
2019-05-10T21:00:37.405Z,87.37
2019-05-10T21:03:06.262Z,86.90
2019-05-10T21:05:35.244Z,86.37
2019-05-10T21:08:16.153Z,87.04
2019-05-10T21:10:34.665Z,87.48
2019-05-10T21:13:03.561Z,87.83
2019-05-10T21:15:33.628Z,88.01
2019-05-10T21:18:02.486Z,88.07
2019-05-10T21:20:31.372Z,87.86
2019-05-10T21:23:00.220Z,87.26
2019-05-10T21:25:29.117Z,87.45
2019-05-10T21:27:58.044Z,88.10
2019-05-10T21:30:27.031Z,88.40
2019-05-10T21:32:56.962Z,87.52
2019-05-10T21:35:25.793Z,87.22
2019-05-10T21:37:54.634Z,87.82
2019-05-10T21:40:23.556Z,88.70
2019-05-10T21:42:58.169Z,88.20
2019-05-10T21:45:33.978Z,88.91
2019-05-10T21:47:59.284Z,89.00
2019-05-10T21:50:28.189Z,89.25
2019-05-10T21:52:57.039Z,89.26
2019-05-10T21:55:25.991Z,89.76
2019-05-10T21:57:56.356Z,90.25
2019-05-10T22:00:28.600Z,90.20
2019-05-10T22:02:57.580Z,90.06
2019-05-10T22:05:26.638Z,89.71
2019-05-10T22:07:55.641Z,89.35
2019-05-10T22:10:24.562Z,88.71
2019-05-10T22:12:54.811Z,88.15
2019-05-10T22:15:25.279Z,87.44
2019-05-10T22:17:54.406Z,87.65
2019-05-10T22:20:23.402Z,89.14
2019-05-10T22:22:52.215Z,89.74
2019-05-10T22:25:22.231Z,90.17
2019-05-10T22:27:51.626Z,90.29
2019-05-10T22:30:20.768Z,89.76
2019-05-10T22:32:49.782Z,89.03
2019-05-10T22:35:18.911Z,89.80
2019-05-10T22:37:48.163Z,90.62
2019-05-10T22:40:17.171Z,91.32
2019-05-10T22:42:46.166Z,91.42
2019-05-10T22:45:15.333Z,91.19
2019-05-10T22:47:44.130Z,91.67
2019-05-10T22:50:13.242Z,91.48
2019-05-10T22:52:42.309Z,90.88
2019-05-10T22:55:11.679Z,91.28
2019-05-10T22:57:40.644Z,91.79
2019-05-10T23:00:10.494Z,92.07
2019-05-10T23:02:39.541Z,92.17
2019-05-10T23:05:08.598Z,91.39
2019-05-10T23:07:37.461Z,91.74
2019-05-10T23:10:07.027Z,91.75
2019-05-10T23:12:35.969Z,91.18
2019-05-10T23:15:05.465Z,90.86
2019-05-10T23:17:40.089Z,91.59
2019-05-10T23:20:09.105Z,92.00
2019-05-10T23:22:38.014Z,92.35
2019-05-10T23:25:07.242Z,92.48
2019-05-10T23:27:36.146Z,92.28
2019-05-10T23:30:06.237Z,91.83
2019-05-10T23:32:35.204Z,91.75
2019-05-10T23:35:04.315Z,91.01
2019-05-10T23:37:33.232Z,90.98
2019-05-10T23:40:04.426Z,90.98
2019-05-10T23:42:33.430Z,90.12
2019-05-10T23:45:02.324Z,90.40
2019-05-10T23:47:31.292Z,90.43
2019-05-10T23:50:00.171Z,89.89
2019-05-10T23:52:29.166Z,90.30
2019-05-10T23:54:57.964Z,90.52
2019-05-10T23:57:26.838Z,90.78
2019-05-10T23:59:55.924Z,91.21
